sensor_id;sensor_type;location;lat;lon;timestamp;temperature;humidity
25688;DHT22;17407;51.120;3.702;2023-07-29T06:01:25;18.90;99.90
25688;DHT22;17407;51.120;3.702;2023-07-29T06:03:51;19.00;99.90
25688;DHT22;17407;51.120;3.702;2023-07-29T06:06:17;19.00;99.90
25688;DHT22;17407;51.120;3.702;2023-07-29T06:08:43;19.00;99.90
25688;DHT22;17407;51.120;3.702;2023-07-29T06:11:08;19.00;99.90
25688;DHT22;17407;51.120;3.702;2023-07-29T06:13:34;19.10;99.90
25688;DHT22;17407;51.120;3.702;2023-07-29T06:15:59;19.10;99.90
25688;DHT22;17407;51.120;3.702;2023-07-29T06:18:25;19.20;99.90
25688;DHT22;17407;51.120;3.702;2023-07-29T06:20:51;19.20;99.90
25688;DHT22;17407;51.120;3.702;2023-07-29T06:23:17;19.20;99.90
25688;DHT22;17407;51.120;3.702;2023-07-29T06:25:43;19.30;99.90
25688;DHT22;17407;51.120;3.702;2023-07-29T06:28:11;19.20;99.90
25688;DHT22;17407;51.120;3.702;2023-07-29T06:30:37;19.30;99.90
25688;DHT22;17407;51.120;3.702;2023-07-29T06:33:02;19.40;99.90
25688;DHT22;17407;51.120;3.702;2023-07-29T06:35:28;19.50;99.90
25688;DHT22;17407;51.120;3.702;2023-07-29T06:37:54;19.50;99.90
25688;DHT22;17407;51.120;3.702;2023-07-29T06:40:20;19.60;99.90
25688;DHT22;17407;51.120;3.702;2023-07-29T06:42:45;19.60;99.90
25688;DHT22;17407;51.120;3.702;2023-07-29T06:45:11;19.60;99.90
25688;DHT22;17407;51.120;3.702;2023-07-29T06:47:37;19.50;99.90
25688;DHT22;17407;51.120;3.702;2023-07-29T06:50:03;19.60;99.90
25688;DHT22;17407;51.120;3.702;2023-07-29T06:52:29;19.80;99.90
25688;DHT22;17407;51.120;3.702;2023-07-29T06:54:55;20.00;99.90
25688;DHT22;17407;51.120;3.702;2023-07-29T06:57:20;20.00;99.90
25688;DHT22;17407;51.120;3.702;2023-07-29T06:59:46;20.20;99.90
25688;DHT22;17407;51.120;3.702;2023-07-29T07:02:12;20.30;99.90
25688;DHT22;17407;51.120;3.702;2023-07-29T07:04:37;20.30;99.90
25688;DHT22;17407;51.120;3.702;2023-07-29T07:07:03;20.40;99.90
25688;DHT22;17407;51.120;3.702;2023-07-29T07:09:29;20.40;99.90
25688;DHT22;17407;51.120;3.702;2023-07-29T07:11:54;20.30;99.90
25688;DHT22;17407;51.120;3.702;2023-07-29T07:14:20;20.50;99.90
25688;DHT22;17407;51.120;3.702;2023-07-29T07:16:45;20.70;99.90
25688;DHT22;17407;51.120;3.702;2023-07-29T07:19:11;20.80;99.90
25688;DHT22;17407;51.120;3.702;2023-07-29T07:21:37;20.80;99.90
25688;DHT22;17407;51.120;3.702;2023-07-29T07:24:02;20.80;99.90
25688;DHT22;17407;51.120;3.702;2023-07-29T07:26:28;21.00;99.90
25688;DHT22;17407;51.120;3.702;2023-07-29T07:28:54;20.90;99.90
25688;DHT22;17407;51.120;3.702;2023-07-29T07:31:19;21.00;99.90
25688;DHT22;17407;51.120;3.702;2023-07-29T07:33:45;21.10;99.90
25688;DHT22;17407;51.120;3.702;2023-07-29T07:36:10;21.10;99.90
25688;DHT22;17407;51.120;3.702;2023-07-29T07:38:36;21.20;99.90
25688;DHT22;17407;51.120;3.702;2023-07-29T07:41:02;21.30;99.90
25688;DHT22;17407;51.120;3.702;2023-07-29T07:43:27;21.40;99.90
25688;DHT22;17407;51.120;3.702;2023-07-29T07:46:03;21.50;99.90
25688;DHT22;17407;51.120;3.702;2023-07-29T07:48:29;21.60;99.90
25688;DHT22;17407;51.120;3.702;2023-07-29T07:50:54;21.70;99.90
25688;DHT22;17407;51.120;3.702;2023-07-29T07:53:20;21.70;99.90
25688;DHT22;17407;51.120;3.702;2023-07-29T07:55:46;21.70;99.90
25688;DHT22;17407;51.120;3.702;2023-07-29T07:58:12;21.80;99.90
25688;DHT22;17407;51.120;3.702;2023-07-29T08:00:37;22.00;99.90
25688;DHT22;17407;51.120;3.702;2023-07-29T08:03:03;21.90;99.90
25688;DHT22;17407;51.120;3.702;2023-07-29T08:05:29;22.00;99.90
25688;DHT22;17407;51.120;3.702;2023-07-29T08:07:54;22.10;99.90
25688;DHT22;17407;51.120;3.702;2023-07-29T08:10:20;22.20;99.90
25688;DHT22;17407;51.120;3.702;2023-07-29T08:12:46;22.20;99.90
25688;DHT22;17407;51.120;3.702;2023-07-29T08:15:11;22.30;99.90
25688;DHT22;17407;51.120;3.702;2023-07-29T08:17:37;22.60;99.90
25688;DHT22;17407;51.120;3.702;2023-07-29T08:20:03;22.90;99.90
25688;DHT22;17407;51.120;3.702;2023-07-29T08:22:28;23.00;99.90
25688;DHT22;17407;51.120;3.702;2023-07-29T08:24:54;22.90;99.90
25688;DHT22;17407;51.120;3.702;2023-07-29T08:27:20;22.70;99.90
25688;DHT22;17407;51.120;3.702;2023-07-29T08:29:45;22.80;99.90
25688;DHT22;17407;51.120;3.702;2023-07-29T08:32:11;22.80;99.90
25688;DHT22;17407;51.120;3.702;2023-07-29T08:34:36;22.90;99.90
25688;DHT22;17407;51.120;3.702;2023-07-29T08:37:02;23.20;99.90
25688;DHT22;17407;51.120;3.702;2023-07-29T08:39:28;23.40;99.90
25688;DHT22;17407;51.120;3.702;2023-07-29T08:44:27;23.60;99.90
25688;DHT22;17407;51.120;3.702;2023-07-29T08:46:54;23.80;99.90
25688;DHT22;17407;51.120;3.702;2023-07-29T08:49:23;23.90;99.90
25688;DHT22;17407;51.120;3.702;2023-07-29T08:51:49;24.00;99.90
25688;DHT22;17407;51.120;3.702;2023-07-29T08:54:16;23.90;99.90
25688;DHT22;17407;51.120;3.702;2023-07-29T08:56:43;23.80;99.90
25688;DHT22;17407;51.120;3.702;2023-07-29T08:59:10;23.60;99.90
25688;DHT22;17407;51.120;3.702;2023-07-29T09:01:39;23.50;99.90
25688;DHT22;17407;51.120;3.702;2023-07-29T09:04:05;23.30;99.90
25688;DHT22;17407;51.120;3.702;2023-07-29T09:06:35;23.10;99.90
25688;DHT22;17407;51.120;3.702;2023-07-29T09:09:01;23.10;99.90
25688;DHT22;17407;51.120;3.702;2023-07-29T09:11:28;23.20;99.90
25688;DHT22;17407;51.120;3.702;2023-07-29T09:13:54;23.20;99.90
25688;DHT22;17407;51.120;3.702;2023-07-29T09:16:20;23.10;99.90
25688;DHT22;17407;51.120;3.702;2023-07-29T09:18:50;23.10;99.90
25688;DHT22;17407;51.120;3.702;2023-07-29T09:21:17;23.00;99.90
25688;DHT22;17407;51.120;3.702;2023-07-29T09:23:44;22.90;99.90
25688;DHT22;17407;51.120;3.702;2023-07-29T09:26:10;22.70;99.90
25688;DHT22;17407;51.120;3.702;2023-07-29T09:28:38;22.60;99.90
25688;DHT22;17407;51.120;3.702;2023-07-29T09:31:05;22.40;99.90
25688;DHT22;17407;51.120;3.702;2023-07-29T09:33:34;22.30;99.90
25688;DHT22;17407;51.120;3.702;2023-07-29T09:36:08;22.10;99.90
25688;DHT22;17407;51.120;3.702;2023-07-29T09:38:34;22.00;99.90
25688;DHT22;17407;51.120;3.702;2023-07-29T09:41:01;22.00;99.90
25688;DHT22;17407;51.120;3.702;2023-07-29T09:43:31;21.70;99.90
25688;DHT22;17407;51.120;3.702;2023-07-29T09:46:05;21.70;99.90
25688;DHT22;17407;51.120;3.702;2023-07-29T09:48:36;21.70;99.90
25688;DHT22;17407;51.120;3.702;2023-07-29T09:51:22;21.70;99.90
25688;DHT22;17407;51.120;3.702;2023-07-29T09:53:49;21.60;99.90
25688;DHT22;17407;51.120;3.702;2023-07-29T09:56:15;21.80;99.90
25688;DHT22;17407;51.120;3.702;2023-07-29T09:58:46;21.70;99.90
25688;DHT22;17407;51.120;3.702;2023-07-29T10:01:13;21.90;99.90
25688;DHT22;17407;51.120;3.702;2023-07-29T10:03:42;22.20;99.90
25688;DHT22;17407;51.120;3.702;2023-07-29T10:06:09;22.50;99.90
25688;DHT22;17407;51.120;3.702;2023-07-29T10:08:36;22.60;99.90
25688;DHT22;17407;51.120;3.702;2023-07-29T10:11:08;22.60;99.90
25688;DHT22;17407;51.120;3.702;2023-07-29T10:13:35;22.50;99.90
25688;DHT22;17407;51.120;3.702;2023-07-29T10:16:01;22.50;99.90
25688;DHT22;17407;51.120;3.702;2023-07-29T10:18:29;22.40;99.90
25688;DHT22;17407;51.120;3.702;2023-07-29T10:20:57;22.20;99.90
25688;DHT22;17407;51.120;3.702;2023-07-29T10:23:25;22.40;99.90
25688;DHT22;17407;51.120;3.702;2023-07-29T10:26:01;22.60;99.90
25688;DHT22;17407;51.120;3.702;2023-07-29T10:28:29;22.90;99.90
25688;DHT22;17407;51.120;3.702;2023-07-29T10:30:56;23.00;99.90
25688;DHT22;17407;51.120;3.702;2023-07-29T10:33:22;22.80;99.90
25688;DHT22;17407;51.120;3.702;2023-07-29T10:35:48;22.40;99.90
25688;DHT22;17407;51.120;3.702;2023-07-29T10:38:14;22.20;99.90
25688;DHT22;17407;51.120;3.702;2023-07-29T10:40:48;21.70;99.90
25688;DHT22;17407;51.120;3.702;2023-07-29T10:43:23;21.30;99.90
25688;DHT22;17407;51.120;3.702;2023-07-29T10:45:49;20.70;99.90
25688;DHT22;17407;51.120;3.702;2023-07-29T10:53:59;19.30;99.90
25688;DHT22;17407;51.120;3.702;2023-07-29T10:56:32;19.20;99.90
25688;DHT22;17407;51.120;3.702;2023-07-29T11:01:58;19.30;99.90
25688;DHT22;17407;51.120;3.702;2023-07-29T11:04:27;19.40;99.90
25688;DHT22;17407;51.120;3.702;2023-07-29T11:10:02;19.70;99.90
25688;DHT22;17407;51.120;3.702;2023-07-29T11:12:39;19.80;99.90
25688;DHT22;17407;51.120;3.702;2023-07-29T11:15:22;19.90;99.90
25688;DHT22;17407;51.120;3.702;2023-07-29T11:20:19;20.10;99.90
25688;DHT22;17407;51.120;3.702;2023-07-29T11:22:45;20.30;99.90
25688;DHT22;17407;51.120;3.702;2023-07-29T11:25:14;20.60;99.90
25688;DHT22;17407;51.120;3.702;2023-07-29T11:27:40;20.90;99.90
25688;DHT22;17407;51.120;3.702;2023-07-29T11:30:08;21.10;99.90
25688;DHT22;17407;51.120;3.702;2023-07-29T11:32:35;21.40;99.90
25688;DHT22;17407;51.120;3.702;2023-07-29T11:35:13;21.70;99.90
25688;DHT22;17407;51.120;3.702;2023-07-29T11:37:41;22.50;99.90
25688;DHT22;17407;51.120;3.702;2023-07-29T11:40:07;23.00;99.90
25688;DHT22;17407;51.120;3.702;2023-07-29T11:42:36;23.50;99.90
25688;DHT22;17407;51.120;3.702;2023-07-29T11:45:03;23.80;99.90
25688;DHT22;17407;51.120;3.702;2023-07-29T11:47:31;24.10;99.90
25688;DHT22;17407;51.120;3.702;2023-07-29T11:50:00;24.30;99.90
25688;DHT22;17407;51.120;3.702;2023-07-29T11:52:27;24.40;99.90
25688;DHT22;17407;51.120;3.702;2023-07-29T11:54:53;24.40;99.90
25688;DHT22;17407;51.120;3.702;2023-07-29T11:57:19;24.50;99.90
25688;DHT22;17407;51.120;3.702;2023-07-29T11:59:46;24.70;99.90
25688;DHT22;17407;51.120;3.702;2023-07-29T12:02:14;25.00;99.90
25688;DHT22;17407;51.120;3.702;2023-07-29T12:04:41;25.00;99.90
25688;DHT22;17407;51.120;3.702;2023-07-29T12:07:07;25.10;99.90
25688;DHT22;17407;51.120;3.702;2023-07-29T12:09:34;25.00;99.90
25688;DHT22;17407;51.120;3.702;2023-07-29T12:12:05;25.00;99.90
25688;DHT22;17407;51.120;3.702;2023-07-29T12:14:32;25.10;99.90
25688;DHT22;17407;51.120;3.702;2023-07-29T12:17:04;25.20;99.90
25688;DHT22;17407;51.120;3.702;2023-07-29T12:19:34;25.20;99.90
25688;DHT22;17407;51.120;3.702;2023-07-29T12:22:01;25.40;99.90
25688;DHT22;17407;51.120;3.702;2023-07-29T12:24:29;25.60;99.90
25688;DHT22;17407;51.120;3.702;2023-07-29T12:26:54;25.90;99.90
25688;DHT22;17407;51.120;3.702;2023-07-29T12:29:20;26.00;99.90
25688;DHT22;17407;51.120;3.702;2023-07-29T12:31:46;25.90;99.90
25688;DHT22;17407;51.120;3.702;2023-07-29T12:34:21;26.10;99.90
25688;DHT22;17407;51.120;3.702;2023-07-29T12:36:51;26.30;99.90
25688;DHT22;17407;51.120;3.702;2023-07-29T12:39:25;26.00;99.90
25688;DHT22;17407;51.120;3.702;2023-07-29T12:41:56;25.60;99.90
25688;DHT22;17407;51.120;3.702;2023-07-29T12:44:31;25.40;99.90
25688;DHT22;17407;51.120;3.702;2023-07-29T12:46:57;25.50;99.90
25688;DHT22;17407;51.120;3.702;2023-07-29T12:49:22;25.60;99.90
25688;DHT22;17407;51.120;3.702;2023-07-29T12:51:48;25.70;99.90
25688;DHT22;17407;51.120;3.702;2023-07-29T12:54:14;25.70;99.90
25688;DHT22;17407;51.120;3.702;2023-07-29T12:56:40;25.50;99.90
25688;DHT22;17407;51.120;3.702;2023-07-29T12:59:06;25.50;99.90
25688;DHT22;17407;51.120;3.702;2023-07-29T13:01:31;25.60;99.90
25688;DHT22;17407;51.120;3.702;2023-07-29T13:03:57;25.60;99.90
25688;DHT22;17407;51.120;3.702;2023-07-29T13:06:23;25.40;99.90
25688;DHT22;17407;51.120;3.702;2023-07-29T13:08:49;25.00;99.90
25688;DHT22;17407;51.120;3.702;2023-07-29T13:11:15;24.90;99.90
25688;DHT22;17407;51.120;3.702;2023-07-29T13:13:41;25.00;99.90
25688;DHT22;17407;51.120;3.702;2023-07-29T13:16:07;24.90;99.90
25688;DHT22;17407;51.120;3.702;2023-07-29T13:18:33;24.70;99.90
25688;DHT22;17407;51.120;3.702;2023-07-29T13:20:59;24.40;99.90
25688;DHT22;17407;51.120;3.702;2023-07-29T13:23:25;24.20;99.90
25688;DHT22;17407;51.120;3.702;2023-07-29T13:25:52;23.90;99.90
25688;DHT22;17407;51.120;3.702;2023-07-29T13:28:17;23.70;99.90
25688;DHT22;17407;51.120;3.702;2023-07-29T13:30:44;23.60;99.90
25688;DHT22;17407;51.120;3.702;2023-07-29T13:33:10;23.50;99.90
25688;DHT22;17407;51.120;3.702;2023-07-29T13:35:35;23.40;99.90
25688;DHT22;17407;51.120;3.702;2023-07-29T13:38:01;23.50;99.90
25688;DHT22;17407;51.120;3.702;2023-07-29T13:40:27;23.30;99.90
25688;DHT22;17407;51.120;3.702;2023-07-29T13:42:54;23.20;99.90
25688;DHT22;17407;51.120;3.702;2023-07-29T13:45:20;23.00;99.90
25688;DHT22;17407;51.120;3.702;2023-07-29T13:47:46;23.10;99.90
25688;DHT22;17407;51.120;3.702;2023-07-29T13:50:12;23.20;99.90
25688;DHT22;17407;51.120;3.702;2023-07-29T13:52:38;23.30;99.90
25688;DHT22;17407;51.120;3.702;2023-07-29T13:55:04;23.40;99.90
25688;DHT22;17407;51.120;3.702;2023-07-29T13:57:30;23.60;99.90
25688;DHT22;17407;51.120;3.702;2023-07-29T13:59:56;23.60;99.90
25688;DHT22;17407;51.120;3.702;2023-07-29T14:02:22;23.50;99.90
25688;DHT22;17407;51.120;3.702;2023-07-29T14:04:47;23.30;99.90
25688;DHT22;17407;51.120;3.702;2023-07-29T14:07:13;23.20;99.90
25688;DHT22;17407;51.120;3.702;2023-07-29T14:09:38;23.30;99.90
25688;DHT22;17407;51.120;3.702;2023-07-29T14:12:05;23.30;99.90
25688;DHT22;17407;51.120;3.702;2023-07-29T14:14:31;23.60;99.90
25688;DHT22;17407;51.120;3.702;2023-07-29T14:16:56;23.90;99.90
25688;DHT22;17407;51.120;3.702;2023-07-29T14:19:23;24.10;99.90
25688;DHT22;17407;51.120;3.702;2023-07-29T14:21:49;24.10;99.90
25688;DHT22;17407;51.120;3.702;2023-07-29T14:24:14;24.10;99.90
25688;DHT22;17407;51.120;3.702;2023-07-29T14:26:41;24.10;99.90
25688;DHT22;17407;51.120;3.702;2023-07-29T14:29:07;24.00;99.90
25688;DHT22;17407;51.120;3.702;2023-07-29T14:31:32;24.00;99.90
25688;DHT22;17407;51.120;3.702;2023-07-29T14:33:58;24.10;99.90
25688;DHT22;17407;51.120;3.702;2023-07-29T14:36:25;24.20;99.90
25688;DHT22;17407;51.120;3.702;2023-07-29T14:38:50;24.40;99.90
25688;DHT22;17407;51.120;3.702;2023-07-29T14:41:16;24.70;99.90
25688;DHT22;17407;51.120;3.702;2023-07-29T14:43:42;24.70;99.90
25688;DHT22;17407;51.120;3.702;2023-07-29T14:46:07;25.00;99.90
25688;DHT22;17407;51.120;3.702;2023-07-29T14:48:33;25.10;99.90
25688;DHT22;17407;51.120;3.702;2023-07-29T14:50:59;25.10;99.90
25688;DHT22;17407;51.120;3.702;2023-07-29T14:53:24;25.00;99.90
25688;DHT22;17407;51.120;3.702;2023-07-29T14:55:50;24.90;99.90
25688;DHT22;17407;51.120;3.702;2023-07-29T14:58:16;24.80;99.90
25688;DHT22;17407;51.120;3.702;2023-07-29T15:00:42;24.70;99.90
25688;DHT22;17407;51.120;3.702;2023-07-29T15:03:08;24.50;99.90
25688;DHT22;17407;51.120;3.702;2023-07-29T15:05:33;24.40;99.90
25688;DHT22;17407;51.120;3.702;2023-07-29T15:07:59;24.40;99.90
25688;DHT22;17407;51.120;3.702;2023-07-29T15:10:25;24.40;99.90
25688;DHT22;17407;51.120;3.702;2023-07-29T15:12:51;24.50;99.90
25688;DHT22;17407;51.120;3.702;2023-07-29T15:15:16;24.60;99.90
25688;DHT22;17407;51.120;3.702;2023-07-29T15:17:43;24.60;99.90
25688;DHT22;17407;51.120;3.702;2023-07-29T15:20:09;24.60;99.90
25688;DHT22;17407;51.120;3.702;2023-07-29T15:22:34;24.50;99.90
25688;DHT22;17407;51.120;3.702;2023-07-29T15:25:00;24.50;99.90
25688;DHT22;17407;51.120;3.702;2023-07-29T15:27:29;24.60;99.90
25688;DHT22;17407;51.120;3.702;2023-07-29T15:29:55;24.60;99.90
25688;DHT22;17407;51.120;3.702;2023-07-29T15:32:22;24.70;99.90
25688;DHT22;17407;51.120;3.702;2023-07-29T15:34:48;24.70;99.90
25688;DHT22;17407;51.120;3.702;2023-07-29T15:37:14;24.50;99.90
25688;DHT22;17407;51.120;3.702;2023-07-29T15:39:40;24.40;99.90
25688;DHT22;17407;51.120;3.702;2023-07-29T15:42:07;24.40;99.90
25688;DHT22;17407;51.120;3.702;2023-07-29T15:44:32;24.30;99.90
25688;DHT22;17407;51.120;3.702;2023-07-29T15:46:58;24.30;99.90
25688;DHT22;17407;51.120;3.702;2023-07-29T15:49:24;24.50;99.90
25688;DHT22;17407;51.120;3.702;2023-07-29T15:51:50;24.50;99.90
25688;DHT22;17407;51.120;3.702;2023-07-29T15:54:17;24.40;99.90
25688;DHT22;17407;51.120;3.702;2023-07-29T15:56:42;24.50;99.90
25688;DHT22;17407;51.120;3.702;2023-07-29T15:59:08;24.60;99.90
25688;DHT22;17407;51.120;3.702;2023-07-29T16:01:34;24.60;99.90
25688;DHT22;17407;51.120;3.702;2023-07-29T16:04:00;24.50;99.90
25688;DHT22;17407;51.120;3.702;2023-07-29T16:06:26;24.40;99.90
25688;DHT22;17407;51.120;3.702;2023-07-29T16:08:52;24.50;99.90
25688;DHT22;17407;51.120;3.702;2023-07-29T16:11:19;24.50;99.90
25688;DHT22;17407;51.120;3.702;2023-07-29T16:13:46;24.20;99.90
25688;DHT22;17407;51.120;3.702;2023-07-29T16:16:11;24.20;99.90
25688;DHT22;17407;51.120;3.702;2023-07-29T16:18:37;24.40;99.90
25688;DHT22;17407;51.120;3.702;2023-07-29T16:21:03;24.50;99.90
25688;DHT22;17407;51.120;3.702;2023-07-29T16:23:32;24.60;99.90
25688;DHT22;17407;51.120;3.702;2023-07-29T16:25:59;24.60;99.90
25688;DHT22;17407;51.120;3.702;2023-07-29T16:28:25;24.60;99.90
25688;DHT22;17407;51.120;3.702;2023-07-29T16:30:51;24.40;99.90
25688;DHT22;17407;51.120;3.702;2023-07-29T16:33:17;24.40;99.90
25688;DHT22;17407;51.120;3.702;2023-07-29T16:35:42;24.30;99.90
25688;DHT22;17407;51.120;3.702;2023-07-29T16:38:08;24.40;99.90
25688;DHT22;17407;51.120;3.702;2023-07-29T16:40:34;24.40;99.90
25688;DHT22;17407;51.120;3.702;2023-07-29T16:43:00;24.40;99.90
25688;DHT22;17407;51.120;3.702;2023-07-29T16:45:26;24.40;99.90
25688;DHT22;17407;51.120;3.702;2023-07-29T16:47:53;24.40;99.90
25688;DHT22;17407;51.120;3.702;2023-07-29T16:50:19;24.20;99.90
25688;DHT22;17407;51.120;3.702;2023-07-29T16:52:45;24.10;99.90
25688;DHT22;17407;51.120;3.702;2023-07-29T16:55:11;23.80;99.90
25688;DHT22;17407;51.120;3.702;2023-07-29T16:57:36;23.80;99.90
25688;DHT22;17407;51.120;3.702;2023-07-29T17:00:03;23.80;99.90
25688;DHT22;17407;51.120;3.702;2023-07-29T17:02:28;23.80;99.90
25688;DHT22;17407;51.120;3.702;2023-07-29T17:04:54;23.90;99.90
25688;DHT22;17407;51.120;3.702;2023-07-29T17:07:20;23.90;99.90
25688;DHT22;17407;51.120;3.702;2023-07-29T17:09:45;23.80;99.90
25688;DHT22;17407;51.120;3.702;2023-07-29T17:12:12;23.60;99.90
25688;DHT22;17407;51.120;3.702;2023-07-29T17:14:38;23.60;99.90
25688;DHT22;17407;51.120;3.702;2023-07-29T17:17:04;23.80;99.90
25688;DHT22;17407;51.120;3.702;2023-07-29T17:19:30;23.80;99.90
25688;DHT22;17407;51.120;3.702;2023-07-29T17:21:55;23.70;99.90
25688;DHT22;17407;51.120;3.702;2023-07-29T17:24:21;23.50;99.90
25688;DHT22;17407;51.120;3.702;2023-07-29T17:26:47;23.20;99.90
25688;DHT22;17407;51.120;3.702;2023-07-29T17:29:12;23.20;99.90
25688;DHT22;17407;51.120;3.702;2023-07-29T17:31:38;23.20;99.90
25688;DHT22;17407;51.120;3.702;2023-07-29T17:34:03;23.40;99.90
25688;DHT22;17407;51.120;3.702;2023-07-29T17:36:29;23.40;99.90
25688;DHT22;17407;51.120;3.702;2023-07-29T17:38:55;23.40;99.90
25688;DHT22;17407;51.120;3.702;2023-07-29T17:41:20;23.30;99.90
25688;DHT22;17407;51.120;3.702;2023-07-29T17:43:46;23.20;99.90
25688;DHT22;17407;51.120;3.702;2023-07-29T17:46:14;23.20;99.90
25688;DHT22;17407;51.120;3.702;2023-07-29T17:48:43;23.00;99.90
25688;DHT22;17407;51.120;3.702;2023-07-29T17:51:09;22.90;99.90
25688;DHT22;17407;51.120;3.702;2023-07-29T17:53:34;23.00;99.90
25688;DHT22;17407;51.120;3.702;2023-07-29T17:56:00;23.20;99.90
25688;DHT22;17407;51.120;3.702;2023-07-29T17:58:25;23.20;99.90
25688;DHT22;17407;51.120;3.702;2023-07-29T18:00:51;23.30;99.90
25688;DHT22;17407;51.120;3.702;2023-07-29T18:03:18;23.30;99.90
25688;DHT22;17407;51.120;3.702;2023-07-29T18:05:44;23.20;99.90
25688;DHT22;17407;51.120;3.702;2023-07-29T18:08:10;22.80;99.90
25688;DHT22;17407;51.120;3.702;2023-07-29T18:10:40;22.80;99.90
25688;DHT22;17407;51.120;3.702;2023-07-29T18:13:06;22.70;99.90
25688;DHT22;17407;51.120;3.702;2023-07-29T18:15:31;22.70;99.90
25688;DHT22;17407;51.120;3.702;2023-07-29T18:17:57;22.50;99.90
25688;DHT22;17407;51.120;3.702;2023-07-29T18:20:23;22.40;99.90
25688;DHT22;17407;51.120;3.702;2023-07-29T18:22:50;22.40;99.90
25688;DHT22;17407;51.120;3.702;2023-07-29T18:25:16;22.30;99.90
25688;DHT22;17407;51.120;3.702;2023-07-29T18:27:42;22.20;99.90
25688;DHT22;17407;51.120;3.702;2023-07-29T18:30:08;22.00;99.90
25688;DHT22;17407;51.120;3.702;2023-07-29T18:32:33;21.90;99.90
25688;DHT22;17407;51.120;3.702;2023-07-29T18:34:59;21.80;99.90
25688;DHT22;17407;51.120;3.702;2023-07-29T18:37:24;21.80;99.90
25688;DHT22;17407;51.120;3.702;2023-07-29T18:39:50;21.80;99.90
25688;DHT22;17407;51.120;3.702;2023-07-29T18:42:16;21.80;99.90
25688;DHT22;17407;51.120;3.702;2023-07-29T18:44:43;21.70;99.90
25688;DHT22;17407;51.120;3.702;2023-07-29T18:47:09;21.60;99.90
25688;DHT22;17407;51.120;3.702;2023-07-29T18:49:35;21.60;99.90
25688;DHT22;17407;51.120;3.702;2023-07-29T18:52:02;21.50;99.90
25688;DHT22;17407;51.120;3.702;2023-07-29T18:54:28;21.40;99.90
25688;DHT22;17407;51.120;3.702;2023-07-29T18:56:56;21.30;99.90
25688;DHT22;17407;51.120;3.702;2023-07-29T18:59:22;21.20;99.90
25688;DHT22;17407;51.120;3.702;2023-07-29T19:01:48;21.10;99.90
25688;DHT22;17407;51.120;3.702;2023-07-29T19:04:13;21.10;99.90
25688;DHT22;17407;51.120;3.702;2023-07-29T19:06:39;21.20;99.90
25688;DHT22;17407;51.120;3.702;2023-07-29T19:09:05;21.20;99.90
25688;DHT22;17407;51.120;3.702;2023-07-29T19:11:30;21.10;99.90
25688;DHT22;17407;51.120;3.702;2023-07-29T19:13:56;21.10;99.90
25688;DHT22;17407;51.120;3.702;2023-07-29T19:16:22;21.10;99.90
25688;DHT22;17407;51.120;3.702;2023-07-29T19:18:48;20.90;99.90
25688;DHT22;17407;51.120;3.702;2023-07-29T19:21:14;20.90;99.90
25688;DHT22;17407;51.120;3.702;2023-07-29T19:23:40;20.90;99.90
25688;DHT22;17407;51.120;3.702;2023-07-29T19:26:06;20.90;99.90
25688;DHT22;17407;51.120;3.702;2023-07-29T19:28:31;20.80;99.90
25688;DHT22;17407;51.120;3.702;2023-07-29T19:30:58;20.60;99.90
25688;DHT22;17407;51.120;3.702;2023-07-29T19:33:23;20.60;99.90
25688;DHT22;17407;51.120;3.702;2023-07-29T19:35:56;20.70;99.90
25688;DHT22;17407;51.120;3.702;2023-07-29T19:38:22;20.70;99.90
25688;DHT22;17407;51.120;3.702;2023-07-29T19:40:48;20.60;99.90
25688;DHT22;17407;51.120;3.702;2023-07-29T19:43:13;20.60;99.90
25688;DHT22;17407;51.120;3.702;2023-07-29T19:45:46;20.60;99.90
25688;DHT22;17407;51.120;3.702;2023-07-29T19:48:12;20.50;99.90
25688;DHT22;17407;51.120;3.702;2023-07-29T19:50:38;20.40;99.90
25688;DHT22;17407;51.120;3.702;2023-07-29T19:53:03;20.30;99.90
25688;DHT22;17407;51.120;3.702;2023-07-29T19:55:29;20.10;99.90
25688;DHT22;17407;51.120;3.702;2023-07-29T19:57:56;20.10;99.90
25688;DHT22;17407;51.120;3.702;2023-07-29T20:00:22;20.00;99.90
25688;DHT22;17407;51.120;3.702;2023-07-29T20:02:48;19.90;99.90
25688;DHT22;17407;51.120;3.702;2023-07-29T20:05:13;20.00;99.90
25688;DHT22;17407;51.120;3.702;2023-07-29T20:07:39;20.00;99.90
25688;DHT22;17407;51.120;3.702;2023-07-29T20:10:06;20.00;99.90
25688;DHT22;17407;51.120;3.702;2023-07-29T20:12:32;20.00;99.90
25688;DHT22;17407;51.120;3.702;2023-07-29T20:14:58;19.80;99.90
25688;DHT22;17407;51.120;3.702;2023-07-29T20:17:28;19.50;99.90
25688;DHT22;17407;51.120;3.702;2023-07-29T20:19:54;19.50;99.90
25688;DHT22;17407;51.120;3.702;2023-07-29T20:22:20;19.40;99.90
25688;DHT22;17407;51.120;3.702;2023-07-29T20:24:45;19.30;99.90
25688;DHT22;17407;51.120;3.702;2023-07-29T20:27:11;19.20;99.90
25688;DHT22;17407;51.120;3.702;2023-07-29T20:29:37;19.20;99.90
25688;DHT22;17407;51.120;3.702;2023-07-29T20:32:03;19.00;99.90
25688;DHT22;17407;51.120;3.702;2023-07-29T20:34:29;19.10;99.90
25688;DHT22;17407;51.120;3.702;2023-07-29T20:36:55;19.20;99.90
25688;DHT22;17407;51.120;3.702;2023-07-29T20:39:21;19.10;99.90
25688;DHT22;17407;51.120;3.702;2023-07-29T20:41:46;19.10;99.90
25688;DHT22;17407;51.120;3.702;2023-07-29T20:44:12;19.00;99.90
25688;DHT22;17407;51.120;3.702;2023-07-29T20:46:38;18.90;99.90
25688;DHT22;17407;51.120;3.702;2023-07-29T20:49:04;18.90;99.90
25688;DHT22;17407;51.120;3.702;2023-07-29T20:51:29;18.80;99.90
25688;DHT22;17407;51.120;3.702;2023-07-29T20:53:55;18.70;99.90
25688;DHT22;17407;51.120;3.702;2023-07-29T20:56:21;18.70;99.90
25688;DHT22;17407;51.120;3.702;2023-07-29T20:58:46;18.80;99.90
25688;DHT22;17407;51.120;3.702;2023-07-29T21:01:12;18.80;99.90
25688;DHT22;17407;51.120;3.702;2023-07-29T21:03:38;18.80;99.90
25688;DHT22;17407;51.120;3.702;2023-07-29T21:06:04;18.70;99.90
25688;DHT22;17407;51.120;3.702;2023-07-29T21:08:30;18.50;99.90
25688;DHT22;17407;51.120;3.702;2023-07-29T21:10:55;18.50;99.90
25688;DHT22;17407;51.120;3.702;2023-07-29T21:13:21;18.20;99.90
25688;DHT22;17407;51.120;3.702;2023-07-29T21:15:51;18.30;99.90
25688;DHT22;17407;51.120;3.702;2023-07-29T21:18:17;18.20;99.90
25688;DHT22;17407;51.120;3.702;2023-07-29T21:20:43;18.10;99.90
25688;DHT22;17407;51.120;3.702;2023-07-29T21:23:08;18.20;99.90
25688;DHT22;17407;51.120;3.702;2023-07-29T21:25:34;18.20;99.90
25688;DHT22;17407;51.120;3.702;2023-07-29T21:28:00;18.20;99.90
25688;DHT22;17407;51.120;3.702;2023-07-29T21:30:26;18.10;99.90
25688;DHT22;17407;51.120;3.702;2023-07-29T21:32:51;17.80;99.90
25688;DHT22;17407;51.120;3.702;2023-07-29T21:35:17;17.80;99.90
25688;DHT22;17407;51.120;3.702;2023-07-29T21:37:43;17.90;99.90
25688;DHT22;17407;51.120;3.702;2023-07-29T21:40:09;17.90;99.90
25688;DHT22;17407;51.120;3.702;2023-07-29T21:42:35;17.90;99.90